Time;durP1;ratioP1;P1;durP2;ratioP2;P2;SDS_P1;SDS_P2;PMS_P1;PMS_P2;Temp;Humidity;BMP_temperature;BMP_pressure;BME280_temperature;BME280_humidity;BME280_pressure;Samples;Min_cycle;Max_cycle;Signal;HPM_P1;HPM_P2
2021/12/02 00:03:13;;;;;;;18.85;11.90;;;;;;;;;;8431781;28;20081;-73
2021/12/02 00:07:16;;;;;;;19.23;10.07;;;;;;;;;;8431711;28;20108;-73
2021/12/02 00:11:20;;;;;;;19.98;9.32;;;;;;;;;;8431531;28;20051;-73
2021/12/02 00:15:28;;;;;;;20.27;9.98;;;;;;;;;;8431983;28;20048;-73
2021/12/02 00:23:56;;;;;;;18.35;9.43;;;;;;;;;;8430351;28;20040;-73
2021/12/02 00:28:01;;;;;;;15.18;9.05;;;;;;;;;;8431141;28;20039;-73
2021/12/02 00:32:07;;;;;;;16.83;9.70;;;;;;;;;;8431453;28;20055;-73
2021/12/02 00:36:11;;;;;;;20.02;9.05;;;;;;;;;;8430877;28;20039;-73
2021/12/02 00:40:14;;;;;;;17.50;9.90;;;;;;;;;;8430716;28;20044;-73
2021/12/02 00:44:18;;;;;;;16.27;8.85;;;;;;;;;;8430547;28;20044;-73
2021/12/02 00:48:23;;;;;;;17.00;8.57;;;;;;;;;;8430392;28;20056;-73
2021/12/02 00:52:28;;;;;;;19.63;8.93;;;;;;;;;;8431059;28;20518;-73
2021/12/02 00:56:31;;;;;;;18.92;8.80;;;;;;;;;;8430426;28;20072;-73
2021/12/02 01:00:35;;;;;;;16.27;8.32;;;;;;;;;;8430269;28;20416;-73
2021/12/02 01:04:39;;;;;;;18.38;9.38;;;;;;;;;;8430357;28;20057;-73
2021/12/02 01:08:43;;;;;;;16.65;8.05;;;;;;;;;;8430762;28;20507;-74
2021/12/02 01:12:46;;;;;;;16.55;8.10;;;;;;;;;;8416129;28;20546;-74
2021/12/02 01:16:49;;;;;;;13.45;7.18;;;;;;;;;;8396594;28;20045;-74
2021/12/02 01:20:54;;;;;;;17.60;8.82;;;;;;;;;;8396585;28;20090;-73
2021/12/02 01:24:57;;;;;;;14.50;6.65;;;;;;;;;;8397131;28;20051;-73
2021/12/02 01:29:02;;;;;;;17.90;8.45;;;;;;;;;;8396935;28;20447;-73
2021/12/02 01:33:07;;;;;;;16.75;7.95;;;;;;;;;;8396854;28;20041;-74
2021/12/02 01:37:12;;;;;;;15.40;7.68;;;;;;;;;;8401973;28;20053;-74
2021/12/02 01:41:15;;;;;;;13.32;7.10;;;;;;;;;;8402818;28;20105;-73
2021/12/02 01:45:22;;;;;;;12.55;7.20;;;;;;;;;;8402920;28;20135;-74
2021/12/02 01:49:30;;;;;;;13.75;7.05;;;;;;;;;;8402553;28;20049;-73
2021/12/02 01:53:36;;;;;;;14.43;7.05;;;;;;;;;;8402514;28;20484;-73
2021/12/02 01:57:47;;;;;;;14.43;7.70;;;;;;;;;;8402259;28;20059;-74
2021/12/02 02:01:56;;;;;;;12.02;6.65;;;;;;;;;;8402648;28;20400;-73
2021/12/02 02:06:04;;;;;;;15.93;7.72;;;;;;;;;;8402011;28;20078;-73
2021/12/02 02:10:09;;;;;;;13.68;7.55;;;;;;;;;;8401938;28;20040;-74
2021/12/02 02:14:12;;;;;;;11.45;6.15;;;;;;;;;;8402214;28;20041;-73
2021/12/02 02:18:20;;;;;;;11.82;5.80;;;;;;;;;;8401558;28;20048;-73
2021/12/02 02:22:39;;;;;;;12.85;6.30;;;;;;;;;;8401578;28;20052;-73
2021/12/02 02:26:46;;;;;;;12.70;6.50;;;;;;;;;;8401718;28;20060;-74
2021/12/02 02:30:49;;;;;;;11.05;6.15;;;;;;;;;;8401720;28;20072;-73
2021/12/02 02:34:52;;;;;;;11.38;6.25;;;;;;;;;;8401114;28;20550;-73
2021/12/02 02:38:58;;;;;;;9.77;5.90;;;;;;;;;;8400937;28;20048;-73
2021/12/02 02:43:06;;;;;;;11.13;6.80;;;;;;;;;;8400931;28;20056;-73
2021/12/02 02:47:10;;;;;;;9.57;5.57;;;;;;;;;;8399692;28;20067;-73
2021/12/02 02:51:12;;;;;;;11.27;6.32;;;;;;;;;;8400734;28;20098;-73
2021/12/02 02:55:22;;;;;;;11.55;7.13;;;;;;;;;;8400553;28;20055;-73
2021/12/02 02:59:32;;;;;;;11.32;5.63;;;;;;;;;;8400408;28;20044;-73
2021/12/02 03:03:43;;;;;;;9.32;5.65;;;;;;;;;;8400439;28;20056;-79
2021/12/02 03:07:51;;;;;;;9.30;5.72;;;;;;;;;;8400286;28;20120;-73
2021/12/02 03:12:03;;;;;;;11.07;6.07;;;;;;;;;;8400155;28;20044;-72
2021/12/02 03:20:26;;;;;;;15.05;5.97;;;;;;;;;;8400169;28;20476;-73
2021/12/02 03:24:29;;;;;;;11.88;5.80;;;;;;;;;;8400154;28;20044;-74
2021/12/02 03:28:34;;;;;;;10.50;5.32;;;;;;;;;;8399525;28;20055;-74
2021/12/02 03:32:38;;;;;;;10.55;5.47;;;;;;;;;;8399345;28;20048;-74
2021/12/02 03:36:41;;;;;;;9.65;5.22;;;;;;;;;;8399191;28;20109;-74
2021/12/02 03:40:44;;;;;;;10.45;5.45;;;;;;;;;;8399190;28;20234;-73
2021/12/02 03:44:48;;;;;;;8.50;5.05;;;;;;;;;;8398863;28;20048;-74
2021/12/02 03:48:52;;;;;;;9.40;5.40;;;;;;;;;;8398837;28;20101;-74
2021/12/02 03:52:56;;;;;;;7.32;4.45;;;;;;;;;;8398621;28;20385;-74
2021/12/02 03:56:59;;;;;;;8.63;4.95;;;;;;;;;;8398415;28;20052;-74
2021/12/02 04:01:05;;;;;;;7.40;4.28;;;;;;;;;;8398740;28;20045;-74
2021/12/02 04:05:09;;;;;;;7.15;4.38;;;;;;;;;;8398326;28;20511;-74
2021/12/02 04:09:15;;;;;;;7.97;4.50;;;;;;;;;;8398574;28;20048;-74
2021/12/02 04:13:21;;;;;;;8.32;4.30;;;;;;;;;;8397996;28;20049;-74
2021/12/02 04:17:40;;;;;;;9.32;4.60;;;;;;;;;;8398358;28;20098;-74
2021/12/02 04:21:43;;;;;;;8.73;4.22;;;;;;;;;;8398270;28;20049;-74
2021/12/02 04:25:47;;;;;;;8.27;4.30;;;;;;;;;;8397728;28;20140;-74
2021/12/02 04:29:49;;;;;;;6.25;3.65;;;;;;;;;;8397535;28;20102;-74
2021/12/02 04:33:54;;;;;;;13.57;6.20;;;;;;;;;;8398049;28;20045;-74
2021/12/02 04:37:57;;;;;;;6.75;3.78;;;;;;;;;;8397365;28;20089;-74
2021/12/02 04:42:00;;;;;;;7.40;4.20;;;;;;;;;;8397697;28;20102;-74
2021/12/02 04:46:03;;;;;;;7.40;4.70;;;;;;;;;;8397211;28;20097;-74
2021/12/02 04:50:10;;;;;;;8.15;4.38;;;;;;;;;;8397135;28;20053;-75
2021/12/02 04:54:12;;;;;;;7.68;4.05;;;;;;;;;;8397121;28;20044;-74
2021/12/02 04:58:16;;;;;;;7.32;4.32;;;;;;;;;;8409205;28;20048;-74
2021/12/02 05:02:18;;;;;;;6.93;4.82;;;;;;;;;;8396898;28;20044;-74
2021/12/02 05:06:23;;;;;;;7.32;4.30;;;;;;;;;;8396976;28;20074;-75
2021/12/02 05:10:26;;;;;;;7.20;3.90;;;;;;;;;;8396253;28;20044;-74
2021/12/02 05:14:29;;;;;;;7.55;4.03;;;;;;;;;;8397175;28;20118;-74
2021/12/02 05:18:32;;;;;;;6.95;4.13;;;;;;;;;;8396599;28;20075;-74
2021/12/02 05:22:37;;;;;;;7.40;4.03;;;;;;;;;;8396586;28;20052;-74
2021/12/02 05:26:40;;;;;;;7.43;4.22;;;;;;;;;;8436214;28;20135;-74
2021/12/02 05:30:44;;;;;;;7.20;3.83;;;;;;;;;;8430624;28;20044;-74
2021/12/02 05:34:48;;;;;;;5.97;3.47;;;;;;;;;;8439020;28;20475;-74
2021/12/02 05:38:53;;;;;;;5.57;3.63;;;;;;;;;;8422602;28;20048;-74
2021/12/02 05:42:56;;;;;;;6.82;4.95;;;;;;;;;;8425249;28;20089;-74
2021/12/02 05:46:59;;;;;;;5.43;3.20;;;;;;;;;;8407916;28;20052;-74
2021/12/02 05:51:02;;;;;;;5.38;3.42;;;;;;;;;;8413751;28;20113;-73
2021/12/02 05:55:07;;;;;;;5.50;3.53;;;;;;;;;;8435351;28;20048;-74
2021/12/02 05:59:10;;;;;;;10.40;4.43;;;;;;;;;;8429310;28;20051;-73
2021/12/02 06:03:13;;;;;;;12.25;5.97;;;;;;;;;;8429350;28;20048;-74
2021/12/02 06:07:16;;;;;;;4.95;2.95;;;;;;;;;;8429368;28;20044;-74
2021/12/02 06:11:21;;;;;;;4.93;2.97;;;;;;;;;;8429296;28;20502;-74
2021/12/02 06:15:24;;;;;;;4.93;3.00;;;;;;;;;;8429325;28;20047;-73
2021/12/02 06:19:27;;;;;;;4.88;2.80;;;;;;;;;;8429044;28;20051;-73
2021/12/02 06:23:30;;;;;;;4.88;2.88;;;;;;;;;;8433588;28;20048;-73
2021/12/02 06:27:34;;;;;;;6.72;3.10;;;;;;;;;;8434944;28;20059;-73
2021/12/02 06:31:37;;;;;;;5.00;2.80;;;;;;;;;;8434948;28;20495;-75
2021/12/02 06:35:41;;;;;;;5.97;3.17;;;;;;;;;;8434753;28;20044;-73
2021/12/02 06:39:44;;;;;;;4.95;3.10;;;;;;;;;;8435428;28;20059;-76
2021/12/02 06:43:48;;;;;;;7.05;4.05;;;;;;;;;;8434493;28;20044;-73
2021/12/02 06:47:54;;;;;;;6.25;3.45;;;;;;;;;;8434385;28;20043;-73
2021/12/02 06:51:57;;;;;;;7.55;3.70;;;;;;;;;;8434313;28;20036;-73
2021/12/02 06:56:00;;;;;;;6.43;3.90;;;;;;;;;;8434179;28;20040;-73
2021/12/02 07:00:08;;;;;;;5.53;3.30;;;;;;;;;;8433919;28;20061;-73
2021/12/02 07:04:11;;;;;;;5.80;3.38;;;;;;;;;;8433869;28;20048;-73
2021/12/02 07:08:14;;;;;;;6.22;3.90;;;;;;;;;;8433763;28;20101;-74
2021/12/02 07:12:28;;;;;;;6.50;3.10;;;;;;;;;;8433687;28;20078;-73
2021/12/02 07:16:32;;;;;;;5.43;3.30;;;;;;;;;;8422208;28;20052;-73
2021/12/02 07:20:35;;;;;;;5.68;2.90;;;;;;;;;;8433626;28;20044;-73
2021/12/02 07:24:38;;;;;;;6.88;4.10;;;;;;;;;;8433190;28;20059;-73
2021/12/02 07:28:41;;;;;;;10.00;6.05;;;;;;;;;;8415627;28;20453;-74
2021/12/02 07:32:52;;;;;;;10.23;5.38;;;;;;;;;;8408998;28;20139;-74
2021/12/02 07:36:56;;;;;;;8.00;4.93;;;;;;;;;;8424226;28;20426;-74
2021/12/02 07:41:04;;;;;;;6.82;3.60;;;;;;;;;;8430423;28;20498;-73
2021/12/02 07:45:09;;;;;;;6.05;3.85;;;;;;;;;;8419392;28;20041;-74
2021/12/02 07:49:15;;;;;;;6.07;3.35;;;;;;;;;;8428848;28;20055;-75
2021/12/02 07:53:19;;;;;;;6.15;3.40;;;;;;;;;;8405003;28;20093;-73
2021/12/02 07:57:23;;;;;;;8.05;3.85;;;;;;;;;;8410515;28;20048;-74
2021/12/02 08:01:26;;;;;;;4.70;2.55;;;;;;;;;;8412316;28;20113;-75
2021/12/02 08:05:33;;;;;;;4.70;2.55;;;;;;;;;;8426862;28;20491;-75
2021/12/02 08:09:37;;;;;;;6.57;2.72;;;;;;;;;;8429310;28;20040;-75
2021/12/02 08:13:41;;;;;;;8.85;3.72;;;;;;;;;;8420241;28;20044;-75
2021/12/02 08:17:44;;;;;;;6.25;3.58;;;;;;;;;;8412062;28;20048;-76
2021/12/02 08:21:50;;;;;;;4.75;2.40;;;;;;;;;;8420479;28;20047;-75
2021/12/02 08:25:54;;;;;;;3.95;2.65;;;;;;;;;;8439235;28;20046;-75
2021/12/02 08:29:57;;;;;;;6.68;2.80;;;;;;;;;;8415030;28;20496;-76
2021/12/02 08:34:00;;;;;;;6.10;2.97;;;;;;;;;;8417222;28;20416;-76
2021/12/02 08:38:09;;;;;;;4.10;2.40;;;;;;;;;;8397176;28;20522;-75
2021/12/02 08:42:12;;;;;;;4.78;2.80;;;;;;;;;;8406889;28;20101;-76
2021/12/02 08:46:16;;;;;;;4.97;2.78;;;;;;;;;;8424750;28;20124;-76
2021/12/02 08:50:23;;;;;;;4.43;2.78;;;;;;;;;;8430329;28;20040;-76
2021/12/02 08:54:28;;;;;;;3.78;2.50;;;;;;;;;;8431445;28;20046;-76
2021/12/02 08:58:31;;;;;;;3.60;1.80;;;;;;;;;;8430900;28;20044;-76
2021/12/02 09:02:34;;;;;;;3.78;2.05;;;;;;;;;;8431166;28;20501;-75
2021/12/02 09:06:37;;;;;;;3.33;2.40;;;;;;;;;;8442028;28;20047;-76
2021/12/02 09:10:42;;;;;;;4.32;2.00;;;;;;;;;;8432312;28;20048;-76
2021/12/02 09:14:45;;;;;;;4.97;2.00;;;;;;;;;;8431224;28;20040;-75
2021/12/02 09:18:49;;;;;;;4.65;2.30;;;;;;;;;;8434925;28;20047;-76
2021/12/02 09:22:52;;;;;;;4.15;2.22;;;;;;;;;;8417005;28;20048;-77
2021/12/02 09:26:58;;;;;;;6.43;2.58;;;;;;;;;;8413110;28;20076;-76
2021/12/02 09:31:02;;;;;;;5.30;2.65;;;;;;;;;;8393183;28;20055;-76
2021/12/02 09:35:10;;;;;;;7.95;2.40;;;;;;;;;;8412062;28;20056;-76
2021/12/02 09:39:15;;;;;;;7.50;3.08;;;;;;;;;;8415828;28;20089;-76
2021/12/02 09:43:19;;;;;;;5.25;3.00;;;;;;;;;;8423082;28;20513;-75
2021/12/02 09:47:22;;;;;;;3.83;2.67;;;;;;;;;;8401579;28;20080;-76
2021/12/02 09:51:29;;;;;;;6.30;2.60;;;;;;;;;;8418334;28;20059;-76
2021/12/02 09:55:36;;;;;;;4.88;2.55;;;;;;;;;;8419799;28;20105;-76
2021/12/02 09:59:49;;;;;;;6.68;2.95;;;;;;;;;;8409570;28;20082;-77
2021/12/02 10:03:58;;;;;;;5.68;2.55;;;;;;;;;;8412324;28;20490;-76
2021/12/02 10:08:05;;;;;;;5.75;2.83;;;;;;;;;;8431091;28;20480;-76
2021/12/02 10:12:15;;;;;;;3.47;1.98;;;;;;;;;;8416531;28;20540;-76
2021/12/02 10:16:26;;;;;;;4.80;2.30;;;;;;;;;;8420812;28;20063;-76
2021/12/02 10:20:33;;;;;;;6.10;2.72;;;;;;;;;;8428941;28;20040;-76
2021/12/02 10:24:42;;;;;;;6.60;2.80;;;;;;;;;;8419190;28;20556;-76
2021/12/02 10:28:47;;;;;;;9.93;3.17;;;;;;;;;;8421647;28;20122;-76
2021/12/02 10:32:53;;;;;;;4.65;2.22;;;;;;;;;;8415410;28;20458;-76
2021/12/02 10:36:58;;;;;;;5.57;2.13;;;;;;;;;;8410040;28;20079;-76
2021/12/02 10:41:03;;;;;;;4.97;2.35;;;;;;;;;;8405504;28;20067;-75
2021/12/02 10:45:07;;;;;;;4.93;2.15;;;;;;;;;;8413620;28;20064;-78
2021/12/02 10:49:17;;;;;;;4.68;1.90;;;;;;;;;;8414065;28;20044;-77
2021/12/02 10:53:20;;;;;;;4.15;2.22;;;;;;;;;;8430956;28;20044;-76
2021/12/02 10:57:25;;;;;;;8.88;4.07;;;;;;;;;;8430278;28;20063;-76
2021/12/02 11:01:38;;;;;;;4.05;2.33;;;;;;;;;;8422492;28;20123;-76
2021/12/02 11:05:48;;;;;;;6.60;2.92;;;;;;;;;;8427626;28;20043;-76
2021/12/02 11:09:53;;;;;;;8.13;3.50;;;;;;;;;;8420895;28;20077;-76
2021/12/02 11:13:56;;;;;;;7.10;2.90;;;;;;;;;;8424861;28;20525;-76
2021/12/02 11:18:02;;;;;;;5.82;2.17;;;;;;;;;;8419695;28;20086;-76
2021/12/02 11:22:10;;;;;;;5.63;2.38;;;;;;;;;;8431776;28;20089;-76
2021/12/02 11:26:18;;;;;;;4.22;2.40;;;;;;;;;;8409272;28;20102;-76
2021/12/02 11:30:23;;;;;;;6.07;2.58;;;;;;;;;;8411216;28;20572;-76
2021/12/02 11:34:32;;;;;;;7.38;3.10;;;;;;;;;;8429031;28;20144;-77
2021/12/02 11:38:36;;;;;;;4.82;2.33;;;;;;;;;;8432180;28;20047;-76
2021/12/02 11:42:40;;;;;;;4.75;2.72;;;;;;;;;;8432051;28;20044;-76
2021/12/02 11:46:43;;;;;;;5.65;2.75;;;;;;;;;;8432412;28;20447;-76
2021/12/02 11:50:47;;;;;;;7.05;2.88;;;;;;;;;;8432355;28;20414;-76
2021/12/02 11:54:52;;;;;;;7.03;2.90;;;;;;;;;;8432314;28;20543;-77
2021/12/02 11:58:56;;;;;;;6.68;2.83;;;;;;;;;;8431989;28;20068;-77
2021/12/02 12:03:03;;;;;;;6.75;3.38;;;;;;;;;;8432033;28;20044;-77
2021/12/02 12:07:11;;;;;;;6.15;3.50;;;;;;;;;;8431918;28;20052;-77
2021/12/02 12:11:25;;;;;;;5.32;2.60;;;;;;;;;;8431719;28;20071;-77
2021/12/02 12:15:43;;;;;;;6.18;3.17;;;;;;;;;;8431704;28;20044;-76
2021/12/02 12:19:50;;;;;;;10.48;4.63;;;;;;;;;;8432030;28;20150;-78
2021/12/02 12:24:01;;;;;;;5.97;3.40;;;;;;;;;;8431287;28;20044;-77
2021/12/02 12:28:07;;;;;;;10.25;4.57;;;;;;;;;;8431236;28;20052;-79
2021/12/02 12:36:46;;;;;;;6.60;3.97;;;;;;;;;;8437101;28;20479;-77
2021/12/02 12:40:54;;;;;;;9.23;4.63;;;;;;;;;;8463266;28;20061;-80
2021/12/02 12:45:00;;;;;;;8.15;4.03;;;;;;;;;;8463026;28;20044;-80
2021/12/02 12:49:17;;;;;;;10.30;3.92;;;;;;;;;;8463507;28;20099;-76
2021/12/02 12:53:38;;;;;;;10.45;3.67;;;;;;;;;;8463222;28;20047;-80
2021/12/02 12:58:09;;;;;;;9.20;4.45;;;;;;;;;;8461956;28;20047;-77
2021/12/02 13:02:17;;;;;;;5.93;3.10;;;;;;;;;;8442295;28;20463;-78
2021/12/02 13:06:25;;;;;;;10.15;3.97;;;;;;;;;;8432933;28;20045;-76
2021/12/02 13:10:30;;;;;;;28.20;12.07;;;;;;;;;;8451952;28;20929;-76
2021/12/02 13:14:35;;;;;;;17.08;7.07;;;;;;;;;;8441748;28;20040;-76
2021/12/02 13:18:43;;;;;;;14.35;7.07;;;;;;;;;;8462101;28;20047;-76
2021/12/02 13:22:49;;;;;;;14.18;7.63;;;;;;;;;;8449435;28;20052;-76
2021/12/02 13:27:04;;;;;;;11.75;4.80;;;;;;;;;;8423442;28;20130;-76
2021/12/02 13:31:09;;;;;;;20.27;7.90;;;;;;;;;;8400790;28;20082;-76
2021/12/02 13:35:26;;;;;;;10.55;5.18;;;;;;;;;;8418037;28;20040;-76
2021/12/02 13:39:32;;;;;;;7.65;4.10;;;;;;;;;;8413772;28;20090;-76
2021/12/02 13:43:51;;;;;;;6.32;3.40;;;;;;;;;;8407525;28;20724;-76
2021/12/02 13:48:10;;;;;;;5.72;2.72;;;;;;;;;;8421665;28;20433;-76
2021/12/02 13:52:26;;;;;;;13.65;3.80;;;;;;;;;;8432496;28;20045;-76
2021/12/02 13:56:31;;;;;;;9.73;4.90;;;;;;;;;;8434826;28;20040;-76
2021/12/02 14:00:36;;;;;;;7.75;4.05;;;;;;;;;;8434635;28;20055;-76
2021/12/02 14:04:47;;;;;;;92.75;24.67;;;;;;;;;;8434318;28;20044;-76
2021/12/02 14:08:52;;;;;;;10.00;4.13;;;;;;;;;;8434546;28;20044;-75
2021/12/02 14:13:00;;;;;;;14.13;5.63;;;;;;;;;;8419859;28;20093;-78
2021/12/02 14:17:06;;;;;;;18.77;9.55;;;;;;;;;;8434583;28;20063;-76
2021/12/02 14:21:15;;;;;;;12.80;7.53;;;;;;;;;;8434435;28;20146;-75
2021/12/02 14:25:21;;;;;;;16.75;8.60;;;;;;;;;;8433774;28;20067;-76
2021/12/02 14:29:24;;;;;;;10.93;5.55;;;;;;;;;;8420345;28;20044;-75
2021/12/02 14:33:30;;;;;;;38.08;18.80;;;;;;;;;;8433809;28;20052;-78
2021/12/02 14:37:34;;;;;;;20.88;12.38;;;;;;;;;;8433747;28;20487;-75
2021/12/02 14:41:50;;;;;;;21.45;12.23;;;;;;;;;;8442609;28;20100;-76
2021/12/02 14:46:11;;;;;;;18.15;6.38;;;;;;;;;;8415018;27;20195;-76
2021/12/02 14:50:16;;;;;;;23.38;7.80;;;;;;;;;;8456743;28;20048;-77
2021/12/02 14:54:33;;;;;;;47.65;17.15;;;;;;;;;;8404049;28;20625;-76
2021/12/02 14:58:38;;;;;;;63.25;19.65;;;;;;;;;;8406031;28;20580;-76
2021/12/02 15:02:43;;;;;;;161.32;53.45;;;;;;;;;;8412747;28;20059;-77
2021/12/02 15:06:46;;;;;;;50.72;20.42;;;;;;;;;;8432342;28;20161;-76
2021/12/02 15:10:50;;;;;;;23.70;10.35;;;;;;;;;;8432544;28;20040;-76
2021/12/02 15:15:07;;;;;;;29.83;12.80;;;;;;;;;;8432007;28;20048;-76
2021/12/02 15:19:10;;;;;;;51.88;18.50;;;;;;;;;;8414626;28;20484;-76
2021/12/02 15:23:17;;;;;;;26.35;11.98;;;;;;;;;;8422787;28;20101;-75
2021/12/02 15:27:20;;;;;;;25.27;10.05;;;;;;;;;;8408989;28;20047;-75
2021/12/02 15:31:31;;;;;;;24.65;10.02;;;;;;;;;;8432193;28;20052;-75
2021/12/02 15:35:35;;;;;;;34.40;14.38;;;;;;;;;;8414908;28;20480;-77
2021/12/02 15:39:43;;;;;;;32.67;12.90;;;;;;;;;;8408263;28;20126;-75
2021/12/02 15:43:53;;;;;;;33.88;13.88;;;;;;;;;;8405560;28;20044;-75
2021/12/02 15:52:05;;;;;;;41.03;18.15;;;;;;;;;;8378169;28;20548;-75
2021/12/02 15:56:12;;;;;;;84.35;31.90;;;;;;;;;;8426847;28;20109;-75
2021/12/02 16:00:19;;;;;;;37.60;16.35;;;;;;;;;;8407968;28;20048;-76
2021/12/02 16:04:35;;;;;;;38.97;16.88;;;;;;;;;;8414175;28;20186;-77
2021/12/02 16:08:46;;;;;;;22.00;9.00;;;;;;;;;;8432991;28;20052;-77
2021/12/02 16:12:56;;;;;;;29.20;13.43;;;;;;;;;;8430024;28;20040;-77
2021/12/02 16:17:03;;;;;;;32.30;14.83;;;;;;;;;;8430443;28;20036;-77
2021/12/02 16:21:08;;;;;;;24.60;12.40;;;;;;;;;;8430074;28;20105;-79
2021/12/02 16:25:14;;;;;;;18.30;8.52;;;;;;;;;;8430054;28;20052;-77
2021/12/02 16:29:17;;;;;;;36.70;12.48;;;;;;;;;;8430551;28;20131;-77
2021/12/02 16:33:20;;;;;;;22.67;9.75;;;;;;;;;;8428411;28;20044;-77
2021/12/02 16:37:24;;;;;;;28.00;12.45;;;;;;;;;;8429743;28;20155;-77
2021/12/02 16:41:28;;;;;;;24.80;12.25;;;;;;;;;;8437744;28;20051;-77
2021/12/02 16:45:34;;;;;;;24.15;12.05;;;;;;;;;;8463522;28;20336;-77
2021/12/02 16:49:39;;;;;;;32.95;15.75;;;;;;;;;;8463323;28;20127;-77
2021/12/02 16:53:44;;;;;;;37.92;17.40;;;;;;;;;;8462958;28;20050;-77
2021/12/02 16:57:50;;;;;;;34.33;13.60;;;;;;;;;;8442613;28;20036;-77
2021/12/02 17:01:53;;;;;;;30.98;13.85;;;;;;;;;;8396535;28;20144;-77
2021/12/02 17:05:58;;;;;;;19.13;8.77;;;;;;;;;;8423391;28;20483;-77
2021/12/02 17:10:02;;;;;;;17.13;8.27;;;;;;;;;;8414481;28;20064;-77
2021/12/02 17:14:07;;;;;;;23.38;9.00;;;;;;;;;;8429031;28;20044;-77
2021/12/02 17:22:11;;;;;;;26.60;10.90;;;;;;;;;;8394479;28;20048;-77
2021/12/02 17:26:15;;;;;;;40.03;16.73;;;;;;;;;;8428494;28;20048;-77
2021/12/02 17:30:24;;;;;;;62.65;23.48;;;;;;;;;;8428537;28;20048;-78
2021/12/02 17:34:31;;;;;;;88.50;27.77;;;;;;;;;;8427301;28;20143;-77
2021/12/02 17:38:34;;;;;;;47.38;15.02;;;;;;;;;;8421010;28;20475;-77
2021/12/02 17:42:38;;;;;;;33.92;13.80;;;;;;;;;;8438960;28;20047;-77
2021/12/02 17:46:43;;;;;;;32.38;12.48;;;;;;;;;;8449432;28;20055;-77
2021/12/02 17:50:50;;;;;;;37.97;15.77;;;;;;;;;;8441917;28;20056;-77
2021/12/02 18:02:56;;;;;;;29.77;11.48;;;;;;;;;;8410060;28;20036;-76
2021/12/02 18:06:59;;;;;;;34.47;12.50;;;;;;;;;;8428022;28;20036;-78
2021/12/02 18:11:02;;;;;;;33.50;13.02;;;;;;;;;;8395955;28;20412;-77
2021/12/02 18:15:07;;;;;;;36.25;11.77;;;;;;;;;;8396208;28;20404;-76
2021/12/02 18:19:11;;;;;;;25.23;10.70;;;;;;;;;;8406618;28;20051;-78
2021/12/02 18:23:15;;;;;;;51.63;15.60;;;;;;;;;;8404076;28;20053;-78
2021/12/02 18:27:20;;;;;;;46.25;18.95;;;;;;;;;;8401902;28;20135;-76
2021/12/02 18:31:28;;;;;;;75.00;26.42;;;;;;;;;;8403973;28;20056;-79
2021/12/02 18:35:33;;;;;;;126.68;42.00;;;;;;;;;;8408452;28;20480;-76
2021/12/02 18:39:36;;;;;;;54.38;18.85;;;;;;;;;;8405188;28;20040;-77
2021/12/02 18:43:41;;;;;;;202.57;61.47;;;;;;;;;;8432825;28;20044;-76
2021/12/02 18:47:44;;;;;;;49.28;15.80;;;;;;;;;;8419276;28;20051;-76
2021/12/02 18:51:52;;;;;;;48.20;16.88;;;;;;;;;;8430886;28;20040;-76
2021/12/02 18:55:58;;;;;;;31.73;12.63;;;;;;;;;;8433020;28;20048;-76
2021/12/02 19:00:06;;;;;;;44.20;12.93;;;;;;;;;;8434128;28;20127;-75
2021/12/02 19:04:10;;;;;;;43.00;12.93;;;;;;;;;;8434417;28;20095;-76
2021/12/02 19:29:58;;;;;;;57.53;19.80;;;;;;;;;;8434984;28;20044;-76
2021/12/02 19:34:01;;;;;;;47.78;16.33;;;;;;;;;;8430837;28;20063;-76
2021/12/02 19:38:05;;;;;;;47.33;16.15;;;;;;;;;;8445193;28;20047;-76
2021/12/02 19:42:09;;;;;;;43.10;14.75;;;;;;;;;;8435522;28;20446;-76
2021/12/02 19:46:14;;;;;;;50.90;16.75;;;;;;;;;;8432449;28;20054;-76
2021/12/02 19:50:17;;;;;;;34.00;12.75;;;;;;;;;;8432613;28;20437;-76
2021/12/02 19:54:21;;;;;;;29.02;12.30;;;;;;;;;;8432381;28;20051;-76
2021/12/02 19:58:25;;;;;;;23.35;11.43;;;;;;;;;;8432837;28;20064;-76
2021/12/02 20:02:28;;;;;;;31.63;12.85;;;;;;;;;;8432067;28;20059;-76
2021/12/02 20:06:31;;;;;;;33.13;10.65;;;;;;;;;;8432067;28;20052;-76
2021/12/02 20:10:34;;;;;;;78.57;21.10;;;;;;;;;;8431973;28;20070;-76
2021/12/02 20:14:39;;;;;;;33.75;13.68;;;;;;;;;;8431836;28;20142;-77
2021/12/02 20:18:44;;;;;;;42.17;15.85;;;;;;;;;;8432616;28;20104;-75
2021/12/02 20:22:47;;;;;;;35.30;13.32;;;;;;;;;;8431458;28;20044;-75
2021/12/02 20:26:50;;;;;;;28.02;12.13;;;;;;;;;;8431418;28;20415;-75
2021/12/02 20:30:55;;;;;;;291.15;76.55;;;;;;;;;;8431255;28;20082;-75
2021/12/02 20:34:58;;;;;;;95.47;29.23;;;;;;;;;;8431112;28;20114;-75
2021/12/02 20:39:06;;;;;;;37.92;14.23;;;;;;;;;;8417568;28;20044;-75
2021/12/02 20:43:09;;;;;;;35.80;12.27;;;;;;;;;;8427875;28;20101;-75
2021/12/02 20:47:21;;;;;;;62.15;19.02;;;;;;;;;;8406006;28;20515;-74
2021/12/02 20:51:29;;;;;;;62.20;17.20;;;;;;;;;;8397607;28;20540;-75
2021/12/02 20:55:35;;;;;;;63.42;19.80;;;;;;;;;;8397143;28;20072;-75
2021/12/02 20:59:43;;;;;;;52.00;18.33;;;;;;;;;;8397164;28;20048;-75
2021/12/02 21:03:47;;;;;;;56.05;16.48;;;;;;;;;;8396982;28;20052;-75
2021/12/02 21:07:51;;;;;;;50.63;18.02;;;;;;;;;;8396996;28;20041;-75
2021/12/02 21:11:54;;;;;;;62.45;18.60;;;;;;;;;;8397294;28;20553;-77
2021/12/02 21:16:00;;;;;;;50.30;16.15;;;;;;;;;;8396778;28;20094;-76
2021/12/02 21:20:09;;;;;;;47.28;15.32;;;;;;;;;;8397223;28;20476;-76
2021/12/02 21:24:13;;;;;;;53.28;15.52;;;;;;;;;;8396712;28;20048;-77
2021/12/02 21:28:15;;;;;;;56.08;19.15;;;;;;;;;;8396560;28;20091;-76
2021/12/02 21:32:19;;;;;;;28.23;11.02;;;;;;;;;;8396461;28;20079;-76
2021/12/02 21:36:30;;;;;;;28.98;10.73;;;;;;;;;;8396486;28;20384;-76
2021/12/02 21:40:33;;;;;;;39.03;10.90;;;;;;;;;;8396408;28;20051;-75
2021/12/02 21:44:37;;;;;;;21.55;7.70;;;;;;;;;;8396259;28;20074;-75
2021/12/02 21:48:40;;;;;;;21.58;7.53;;;;;;;;;;8396058;28;20063;-76
2021/12/02 21:52:45;;;;;;;26.25;7.15;;;;;;;;;;8399941;28;20480;-76
2021/12/02 21:56:53;;;;;;;41.25;12.18;;;;;;;;;;8402614;28;20045;-77
2021/12/02 22:01:04;;;;;;;31.83;12.32;;;;;;;;;;8402545;28;20484;-76
2021/12/02 22:05:09;;;;;;;14.38;7.00;;;;;;;;;;8402765;28;20412;-76
2021/12/02 22:09:14;;;;;;;26.30;10.55;;;;;;;;;;8402642;28;20490;-76
2021/12/02 22:13:17;;;;;;;33.58;11.88;;;;;;;;;;8402619;28;20052;-76
2021/12/02 22:17:20;;;;;;;32.67;11.77;;;;;;;;;;8401991;28;20064;-76
2021/12/02 22:21:24;;;;;;;22.30;9.38;;;;;;;;;;8401892;28;20045;-76
2021/12/02 22:25:28;;;;;;;26.05;9.20;;;;;;;;;;8401666;28;20048;-76
2021/12/02 22:29:31;;;;;;;26.10;9.52;;;;;;;;;;8402095;28;20067;-77
2021/12/02 22:33:35;;;;;;;22.27;8.90;;;;;;;;;;8401458;28;20079;-77
2021/12/02 22:37:41;;;;;;;16.92;6.15;;;;;;;;;;8401443;28;20044;-76
2021/12/02 22:41:46;;;;;;;19.20;6.72;;;;;;;;;;8401755;28;20136;-77
2021/12/02 22:45:50;;;;;;;24.75;9.48;;;;;;;;;;8401099;28;20114;-76
2021/12/02 22:49:53;;;;;;;18.33;7.03;;;;;;;;;;8400786;28;20056;-76
2021/12/02 22:53:56;;;;;;;21.70;7.40;;;;;;;;;;8401401;28;20048;-76
2021/12/02 22:58:01;;;;;;;16.83;6.82;;;;;;;;;;8400736;28;20094;-76
2021/12/02 23:02:06;;;;;;;21.27;7.32;;;;;;;;;;8400363;28;20527;-76
2021/12/02 23:06:09;;;;;;;11.63;5.18;;;;;;;;;;8400150;28;20041;-76
2021/12/02 23:10:13;;;;;;;12.98;5.07;;;;;;;;;;8400922;28;20492;-77
2021/12/02 23:14:22;;;;;;;13.75;5.13;;;;;;;;;;8400337;28;20045;-77
2021/12/02 23:18:26;;;;;;;10.88;5.47;;;;;;;;;;8400200;28;20045;-76
2021/12/02 23:22:33;;;;;;;13.05;5.35;;;;;;;;;;8400414;28;20349;-77
2021/12/02 23:26:37;;;;;;;8.68;4.32;;;;;;;;;;8400396;28;20049;-76
2021/12/02 23:30:46;;;;;;;16.33;4.78;;;;;;;;;;8399769;28;20177;-77
2021/12/02 23:34:50;;;;;;;12.35;4.65;;;;;;;;;;8399562;28;20092;-76
2021/12/02 23:38:53;;;;;;;14.07;4.40;;;;;;;;;;8420755;28;20044;-76
2021/12/02 23:42:56;;;;;;;14.02;5.03;;;;;;;;;;8410534;28;20049;-79
2021/12/02 23:47:00;;;;;;;13.32;4.97;;;;;;;;;;8399011;28;20457;-77
2021/12/02 23:51:06;;;;;;;13.15;4.55;;;;;;;;;;8398965;28;20053;-76
2021/12/02 23:55:11;;;;;;;15.70;5.75;;;;;;;;;;8398885;28;20063;-76
2021/12/02 23:59:14;;;;;;;17.33;4.85;;;;;;;;;;8399301;28;20059;-77
